sensor_id;sensor_type;location;lat;lon;timestamp;temperature;humidity
16974;DHT22;8603;46.944;7.412;2022-10-31T00:26:45;8.00;99.90
16974;DHT22;8603;46.944;7.412;2022-10-31T00:29:11;8.00;99.90
16974;DHT22;8603;46.944;7.412;2022-10-31T00:31:43;8.00;99.90
16974;DHT22;8603;46.944;7.412;2022-10-31T00:34:20;8.00;99.90
16974;DHT22;8603;46.944;7.412;2022-10-31T00:37:06;8.10;99.90
16974;DHT22;8603;46.944;7.412;2022-10-31T00:39:38;8.10;99.90
16974;DHT22;8603;46.944;7.412;2022-10-31T00:42:09;8.10;99.90
16974;DHT22;8603;46.944;7.412;2022-10-31T00:44:42;8.10;99.90
16974;DHT22;8603;46.944;7.412;2022-10-31T00:47:08;8.10;99.90
16974;DHT22;8603;46.944;7.412;2022-10-31T00:49:38;8.00;99.90
16974;DHT22;8603;46.944;7.412;2022-10-31T00:52:07;8.00;99.90
16974;DHT22;8603;46.944;7.412;2022-10-31T00:54:37;8.00;99.90
16974;DHT22;8603;46.944;7.412;2022-10-31T00:57:13;8.00;99.90
16974;DHT22;8603;46.944;7.412;2022-10-31T00:59:39;8.00;99.90
16974;DHT22;8603;46.944;7.412;2022-10-31T01:02:10;8.00;99.90
16974;DHT22;8603;46.944;7.412;2022-10-31T01:04:53;7.90;99.90
16974;DHT22;8603;46.944;7.412;2022-10-31T01:07:24;7.90;99.90
16974;DHT22;8603;46.944;7.412;2022-10-31T01:09:50;7.90;99.90
16974;DHT22;8603;46.944;7.412;2022-10-31T01:12:16;7.80;99.90
16974;DHT22;8603;46.944;7.412;2022-10-31T01:14:45;7.80;99.90
16974;DHT22;8603;46.944;7.412;2022-10-31T01:17:12;7.80;99.90
16974;DHT22;8603;46.944;7.412;2022-10-31T01:19:38;7.80;99.90
16974;DHT22;8603;46.944;7.412;2022-10-31T01:22:03;7.80;99.90
16974;DHT22;8603;46.944;7.412;2022-10-31T01:24:33;7.80;99.90
16974;DHT22;8603;46.944;7.412;2022-10-31T01:27:01;7.80;99.90
16974;DHT22;8603;46.944;7.412;2022-10-31T01:29:27;7.80;99.90
16974;DHT22;8603;46.944;7.412;2022-10-31T01:31:55;7.80;99.90
16974;DHT22;8603;46.944;7.412;2022-10-31T01:34:23;7.80;99.90
16974;DHT22;8603;46.944;7.412;2022-10-31T01:37:07;7.80;99.90
16974;DHT22;8603;46.944;7.412;2022-10-31T01:39:45;7.80;99.90
16974;DHT22;8603;46.944;7.412;2022-10-31T01:42:38;7.80;99.90
16974;DHT22;8603;46.944;7.412;2022-10-31T01:45:49;7.80;99.90
16974;DHT22;8603;46.944;7.412;2022-10-31T01:51:53;7.70;99.90
16974;DHT22;8603;46.944;7.412;2022-10-31T01:54:45;7.70;99.90
16974;DHT22;8603;46.944;7.412;2022-10-31T01:57:28;7.60;99.90
16974;DHT22;8603;46.944;7.412;2022-10-31T02:00:07;7.60;99.90
16974;DHT22;8603;46.944;7.412;2022-10-31T02:02:52;7.50;99.90
16974;DHT22;8603;46.944;7.412;2022-10-31T02:05:33;7.50;99.90
16974;DHT22;8603;46.944;7.412;2022-10-31T02:11:19;7.50;99.90
16974;DHT22;8603;46.944;7.412;2022-10-31T02:14:14;7.50;99.90
16974;DHT22;8603;46.944;7.412;2022-10-31T02:17:09;7.50;99.90
16974;DHT22;8603;46.944;7.412;2022-10-31T02:44:22;7.60;99.90
16974;DHT22;8603;46.944;7.412;2022-10-31T02:50:14;7.60;99.90
16974;DHT22;8603;46.944;7.412;2022-10-31T03:15:55;7.60;99.90
16974;DHT22;8603;46.944;7.412;2022-10-31T03:18:59;7.60;99.90
16974;DHT22;8603;46.944;7.412;2022-10-31T03:24:40;7.60;99.90
16974;DHT22;8603;46.944;7.412;2022-10-31T03:27:23;7.60;99.90
16974;DHT22;8603;46.944;7.412;2022-10-31T03:30:25;7.50;99.90
16974;DHT22;8603;46.944;7.412;2022-10-31T03:33:34;7.60;99.90
16974;DHT22;8603;46.944;7.412;2022-10-31T03:36:28;7.60;99.90
16974;DHT22;8603;46.944;7.412;2022-10-31T03:39:41;7.50;99.90
16974;DHT22;8603;46.944;7.412;2022-10-31T03:43:01;7.50;99.90
16974;DHT22;8603;46.944;7.412;2022-10-31T03:45:49;7.50;99.90
16974;DHT22;8603;46.944;7.412;2022-10-31T03:48:28;7.50;99.90
16974;DHT22;8603;46.944;7.412;2022-10-31T03:51:33;7.40;99.90
16974;DHT22;8603;46.944;7.412;2022-10-31T03:54:25;7.50;99.90
16974;DHT22;8603;46.944;7.412;2022-10-31T03:57:38;7.40;99.90
16974;DHT22;8603;46.944;7.412;2022-10-31T04:00:08;7.40;99.90
16974;DHT22;8603;46.944;7.412;2022-10-31T04:03:03;7.40;99.90
16974;DHT22;8603;46.944;7.412;2022-10-31T04:05:47;7.40;99.90
16974;DHT22;8603;46.944;7.412;2022-10-31T04:08:49;7.40;99.90
16974;DHT22;8603;46.944;7.412;2022-10-31T04:11:27;7.40;99.90
16974;DHT22;8603;46.944;7.412;2022-10-31T04:14:06;7.30;99.90
16974;DHT22;8603;46.944;7.412;2022-10-31T04:17:06;7.30;99.90
16974;DHT22;8603;46.944;7.412;2022-10-31T04:20:29;7.30;99.90
16974;DHT22;8603;46.944;7.412;2022-10-31T04:26:16;7.30;99.90
16974;DHT22;8603;46.944;7.412;2022-10-31T04:28:44;7.20;99.90
16974;DHT22;8603;46.944;7.412;2022-10-31T04:31:17;7.20;99.90
16974;DHT22;8603;46.944;7.412;2022-10-31T04:33:47;7.20;99.90
16974;DHT22;8603;46.944;7.412;2022-10-31T04:36:39;7.20;99.90
16974;DHT22;8603;46.944;7.412;2022-10-31T04:39:29;7.20;99.90
16974;DHT22;8603;46.944;7.412;2022-10-31T04:42:16;7.20;99.90
16974;DHT22;8603;46.944;7.412;2022-10-31T04:44:41;7.20;99.90
16974;DHT22;8603;46.944;7.412;2022-10-31T04:47:10;7.20;99.90
16974;DHT22;8603;46.944;7.412;2022-10-31T04:49:44;7.20;99.90
16974;DHT22;8603;46.944;7.412;2022-10-31T04:52:13;7.20;99.90
16974;DHT22;8603;46.944;7.412;2022-10-31T04:54:42;7.20;99.90
16974;DHT22;8603;46.944;7.412;2022-10-31T04:57:08;7.20;99.90
16974;DHT22;8603;46.944;7.412;2022-10-31T04:59:53;7.20;99.90
16974;DHT22;8603;46.944;7.412;2022-10-31T05:06:25;7.20;99.90
16974;DHT22;8603;46.944;7.412;2022-10-31T05:09:25;7.20;99.90
16974;DHT22;8603;46.944;7.412;2022-10-31T05:12:00;7.20;99.90
16974;DHT22;8603;46.944;7.412;2022-10-31T05:14:27;7.20;99.90
16974;DHT22;8603;46.944;7.412;2022-10-31T05:16:56;7.30;99.90
16974;DHT22;8603;46.944;7.412;2022-10-31T05:29:50;7.30;99.90
16974;DHT22;8603;46.944;7.412;2022-10-31T05:32:23;7.30;99.90
16974;DHT22;8603;46.944;7.412;2022-10-31T05:34:49;7.30;99.90
16974;DHT22;8603;46.944;7.412;2022-10-31T05:37:14;7.30;99.90
16974;DHT22;8603;46.944;7.412;2022-10-31T05:39:40;7.30;99.90
16974;DHT22;8603;46.944;7.412;2022-10-31T05:42:06;7.30;99.90
16974;DHT22;8603;46.944;7.412;2022-10-31T05:44:31;7.30;99.90
16974;DHT22;8603;46.944;7.412;2022-10-31T05:46:57;7.30;99.90
16974;DHT22;8603;46.944;7.412;2022-10-31T05:49:35;7.30;99.90
16974;DHT22;8603;46.944;7.412;2022-10-31T05:52:22;7.30;99.90
16974;DHT22;8603;46.944;7.412;2022-10-31T06:02:00;7.20;99.90
16974;DHT22;8603;46.944;7.412;2022-10-31T06:04:26;7.20;99.90
16974;DHT22;8603;46.944;7.412;2022-10-31T06:06:51;7.20;99.90
16974;DHT22;8603;46.944;7.412;2022-10-31T06:09:20;7.30;99.90
16974;DHT22;8603;46.944;7.412;2022-10-31T06:12:28;7.30;99.90
16974;DHT22;8603;46.944;7.412;2022-10-31T06:15:16;7.30;99.90
16974;DHT22;8603;46.944;7.412;2022-10-31T06:21:33;7.30;99.90
16974;DHT22;8603;46.944;7.412;2022-10-31T06:30:28;7.40;99.90
16974;DHT22;8603;46.944;7.412;2022-10-31T06:32:54;7.50;99.90
16974;DHT22;8603;46.944;7.412;2022-10-31T06:45:41;8.10;99.90
16974;DHT22;8603;46.944;7.412;2022-10-31T06:48:08;8.20;99.90
16974;DHT22;8603;46.944;7.412;2022-10-31T06:50:33;8.30;99.90
16974;DHT22;8603;46.944;7.412;2022-10-31T06:52:59;8.40;99.90
16974;DHT22;8603;46.944;7.412;2022-10-31T06:55:26;8.60;99.90
16974;DHT22;8603;46.944;7.412;2022-10-31T06:57:53;8.70;99.90
16974;DHT22;8603;46.944;7.412;2022-10-31T07:00:19;8.80;99.90
16974;DHT22;8603;46.944;7.412;2022-10-31T07:02:59;8.90;99.90
16974;DHT22;8603;46.944;7.412;2022-10-31T07:05:26;8.90;99.90
16974;DHT22;8603;46.944;7.412;2022-10-31T07:07:53;9.10;99.90
16974;DHT22;8603;46.944;7.412;2022-10-31T07:10:19;9.10;99.90
16974;DHT22;8603;46.944;7.412;2022-10-31T07:12:45;9.20;99.90
16974;DHT22;8603;46.944;7.412;2022-10-31T07:15:10;9.30;99.90
16974;DHT22;8603;46.944;7.412;2022-10-31T07:17:36;9.30;99.90
16974;DHT22;8603;46.944;7.412;2022-10-31T07:20:05;9.30;99.90
16974;DHT22;8603;46.944;7.412;2022-10-31T07:22:37;9.30;99.90
16974;DHT22;8603;46.944;7.412;2022-10-31T07:25:02;9.40;99.90
16974;DHT22;8603;46.944;7.412;2022-10-31T07:27:28;9.40;99.90
16974;DHT22;8603;46.944;7.412;2022-10-31T07:29:54;9.50;99.90
16974;DHT22;8603;46.944;7.412;2022-10-31T07:32:19;9.60;99.90
16974;DHT22;8603;46.944;7.412;2022-10-31T07:34:45;9.70;99.90
16974;DHT22;8603;46.944;7.412;2022-10-31T07:37:10;9.80;99.90
16974;DHT22;8603;46.944;7.412;2022-10-31T07:39:36;9.90;99.90
16974;DHT22;8603;46.944;7.412;2022-10-31T07:42:02;10.00;99.90
16974;DHT22;8603;46.944;7.412;2022-10-31T07:44:27;10.00;99.90
16974;DHT22;8603;46.944;7.412;2022-10-31T07:46:53;10.00;99.90
16974;DHT22;8603;46.944;7.412;2022-10-31T07:49:18;10.10;99.90
16974;DHT22;8603;46.944;7.412;2022-10-31T07:51:44;10.10;99.90
16974;DHT22;8603;46.944;7.412;2022-10-31T07:54:09;10.20;99.90
16974;DHT22;8603;46.944;7.412;2022-10-31T07:56:35;10.30;99.90
16974;DHT22;8603;46.944;7.412;2022-10-31T07:59:00;10.50;99.90
16974;DHT22;8603;46.944;7.412;2022-10-31T08:01:26;10.70;99.90
16974;DHT22;8603;46.944;7.412;2022-10-31T08:03:51;11.00;99.90
16974;DHT22;8603;46.944;7.412;2022-10-31T08:06:17;11.40;99.90
16974;DHT22;8603;46.944;7.412;2022-10-31T08:08:42;11.50;99.90
16974;DHT22;8603;46.944;7.412;2022-10-31T08:11:08;11.60;99.90
16974;DHT22;8603;46.944;7.412;2022-10-31T08:13:34;11.70;99.90
16974;DHT22;8603;46.944;7.412;2022-10-31T08:15:59;11.90;99.90
16974;DHT22;8603;46.944;7.412;2022-10-31T08:18:29;12.00;99.90
16974;DHT22;8603;46.944;7.412;2022-10-31T08:20:55;12.20;99.90
16974;DHT22;8603;46.944;7.412;2022-10-31T08:23:21;12.40;99.90
16974;DHT22;8603;46.944;7.412;2022-10-31T08:25:46;12.80;99.90
16974;DHT22;8603;46.944;7.412;2022-10-31T08:28:13;13.40;99.90
16974;DHT22;8603;46.944;7.412;2022-10-31T08:30:40;14.00;99.90
16974;DHT22;8603;46.944;7.412;2022-10-31T08:33:14;14.60;99.90
16974;DHT22;8603;46.944;7.412;2022-10-31T08:35:40;15.00;99.90
16974;DHT22;8603;46.944;7.412;2022-10-31T08:38:07;15.20;99.90
16974;DHT22;8603;46.944;7.412;2022-10-31T08:40:34;15.40;99.90
16974;DHT22;8603;46.944;7.412;2022-10-31T08:43:02;15.50;99.90
16974;DHT22;8603;46.944;7.412;2022-10-31T08:45:29;15.50;99.90
16974;DHT22;8603;46.944;7.412;2022-10-31T08:48:05;15.40;99.90
16974;DHT22;8603;46.944;7.412;2022-10-31T08:50:33;15.30;99.90
16974;DHT22;8603;46.944;7.412;2022-10-31T08:53:10;15.00;99.90
16974;DHT22;8603;46.944;7.412;2022-10-31T08:55:37;14.80;99.90
16974;DHT22;8603;46.944;7.412;2022-10-31T08:58:05;14.50;99.90
16974;DHT22;8603;46.944;7.412;2022-10-31T09:00:32;14.40;99.90
16974;DHT22;8603;46.944;7.412;2022-10-31T09:03:10;14.30;99.90
16974;DHT22;8603;46.944;7.412;2022-10-31T09:05:36;14.20;99.90
16974;DHT22;8603;46.944;7.412;2022-10-31T09:08:03;14.20;99.90
16974;DHT22;8603;46.944;7.412;2022-10-31T09:10:30;14.10;99.90
16974;DHT22;8603;46.944;7.412;2022-10-31T09:12:57;14.00;99.90
16974;DHT22;8603;46.944;7.412;2022-10-31T09:15:23;14.10;99.90
16974;DHT22;8603;46.944;7.412;2022-10-31T09:17:49;14.20;99.90
16974;DHT22;8603;46.944;7.412;2022-10-31T09:20:14;14.30;99.90
16974;DHT22;8603;46.944;7.412;2022-10-31T09:22:40;14.50;99.90
16974;DHT22;8603;46.944;7.412;2022-10-31T09:25:06;14.70;99.90
16974;DHT22;8603;46.944;7.412;2022-10-31T09:27:32;14.90;99.90
16974;DHT22;8603;46.944;7.412;2022-10-31T09:29:57;15.00;99.90
16974;DHT22;8603;46.944;7.412;2022-10-31T09:32:23;15.10;99.90
16974;DHT22;8603;46.944;7.412;2022-10-31T09:34:48;15.00;99.90
16974;DHT22;8603;46.944;7.412;2022-10-31T09:37:14;15.00;99.90
16974;DHT22;8603;46.944;7.412;2022-10-31T09:39:40;15.00;99.90
16974;DHT22;8603;46.944;7.412;2022-10-31T09:50:25;15.00;99.90
16974;DHT22;8603;46.944;7.412;2022-10-31T09:53:03;15.00;99.90
16974;DHT22;8603;46.944;7.412;2022-10-31T09:55:44;15.10;99.90
16974;DHT22;8603;46.944;7.412;2022-10-31T09:58:19;15.10;99.90
16974;DHT22;8603;46.944;7.412;2022-10-31T10:00:47;15.20;99.90
16974;DHT22;8603;46.944;7.412;2022-10-31T10:06:01;15.30;99.90
16974;DHT22;8603;46.944;7.412;2022-10-31T10:08:31;15.30;99.90
16974;DHT22;8603;46.944;7.412;2022-10-31T10:11:26;15.50;99.90
16974;DHT22;8603;46.944;7.412;2022-10-31T10:16:55;15.70;99.90
16974;DHT22;8603;46.944;7.412;2022-10-31T10:19:29;15.90;99.90
16974;DHT22;8603;46.944;7.412;2022-10-31T10:27:46;16.60;99.90
16974;DHT22;8603;46.944;7.412;2022-10-31T10:30:19;16.80;99.90
16974;DHT22;8603;46.944;7.412;2022-10-31T10:32:51;17.00;99.90
16974;DHT22;8603;46.944;7.412;2022-10-31T10:38:48;17.30;99.90
16974;DHT22;8603;46.944;7.412;2022-10-31T10:41:12;17.50;99.90
16974;DHT22;8603;46.944;7.412;2022-10-31T10:43:39;17.50;99.90
16974;DHT22;8603;46.944;7.412;2022-10-31T10:49:32;17.50;99.90
16974;DHT22;8603;46.944;7.412;2022-10-31T10:57:35;17.20;99.90
16974;DHT22;8603;46.944;7.412;2022-10-31T11:00:19;17.20;99.90
16974;DHT22;8603;46.944;7.412;2022-10-31T11:02:45;17.10;99.90
16974;DHT22;8603;46.944;7.412;2022-10-31T11:05:24;17.00;99.90
16974;DHT22;8603;46.944;7.412;2022-10-31T11:07:50;16.90;99.90
16974;DHT22;8603;46.944;7.412;2022-10-31T11:10:16;16.80;99.90
16974;DHT22;8603;46.944;7.412;2022-10-31T11:13:02;16.70;99.90
16974;DHT22;8603;46.944;7.412;2022-10-31T11:15:31;16.70;99.90
16974;DHT22;8603;46.944;7.412;2022-10-31T11:17:57;16.60;99.90
16974;DHT22;8603;46.944;7.412;2022-10-31T11:20:30;16.60;99.90
16974;DHT22;8603;46.944;7.412;2022-10-31T11:23:24;16.60;99.90
16974;DHT22;8603;46.944;7.412;2022-10-31T11:25:55;16.60;99.90
16974;DHT22;8603;46.944;7.412;2022-10-31T11:28:22;16.60;99.90
16974;DHT22;8603;46.944;7.412;2022-10-31T11:30:57;16.60;99.90
16974;DHT22;8603;46.944;7.412;2022-10-31T11:33:36;16.60;99.90
16974;DHT22;8603;46.944;7.412;2022-10-31T11:36:33;16.60;99.90
16974;DHT22;8603;46.944;7.412;2022-10-31T11:39:03;16.60;99.90
16974;DHT22;8603;46.944;7.412;2022-10-31T11:41:32;16.70;99.90
16974;DHT22;8603;46.944;7.412;2022-10-31T11:46:40;16.60;99.90
16974;DHT22;8603;46.944;7.412;2022-10-31T11:49:14;16.70;99.90
16974;DHT22;8603;46.944;7.412;2022-10-31T11:51:40;16.70;99.90
16974;DHT22;8603;46.944;7.412;2022-10-31T11:54:15;16.70;99.90
16974;DHT22;8603;46.944;7.412;2022-10-31T11:56:42;16.70;99.90
16974;DHT22;8603;46.944;7.412;2022-10-31T11:59:37;16.80;99.90
16974;DHT22;8603;46.944;7.412;2022-10-31T12:02:17;16.80;99.90
16974;DHT22;8603;46.944;7.412;2022-10-31T12:04:47;16.90;99.90
16974;DHT22;8603;46.944;7.412;2022-10-31T12:07:14;16.90;99.90
16974;DHT22;8603;46.944;7.412;2022-10-31T12:09:40;16.90;99.90
16974;DHT22;8603;46.944;7.412;2022-10-31T12:17:22;17.00;99.90
16974;DHT22;8603;46.944;7.412;2022-10-31T12:25:33;17.30;99.90
16974;DHT22;8603;46.944;7.412;2022-10-31T12:30:34;17.30;99.90
16974;DHT22;8603;46.944;7.412;2022-10-31T12:36:29;17.50;99.90
16974;DHT22;8603;46.944;7.412;2022-10-31T12:39:24;17.60;99.90
16974;DHT22;8603;46.944;7.412;2022-10-31T12:47:32;18.00;99.90
16974;DHT22;8603;46.944;7.412;2022-10-31T13:06:48;18.30;99.90
16974;DHT22;8603;46.944;7.412;2022-10-31T13:09:20;18.30;99.90
16974;DHT22;8603;46.944;7.412;2022-10-31T13:11:53;18.20;99.90
16974;DHT22;8603;46.944;7.412;2022-10-31T13:14:33;18.20;99.90
16974;DHT22;8603;46.944;7.412;2022-10-31T13:17:04;18.20;99.90
16974;DHT22;8603;46.944;7.412;2022-10-31T13:19:36;18.20;99.90
16974;DHT22;8603;46.944;7.412;2022-10-31T13:22:08;18.20;99.90
16974;DHT22;8603;46.944;7.412;2022-10-31T13:24:54;18.20;99.90
16974;DHT22;8603;46.944;7.412;2022-10-31T13:27:25;18.20;99.90
16974;DHT22;8603;46.944;7.412;2022-10-31T13:32:26;18.20;99.90
16974;DHT22;8603;46.944;7.412;2022-10-31T13:34:56;18.10;99.90
16974;DHT22;8603;46.944;7.412;2022-10-31T13:37:39;18.00;99.90
16974;DHT22;8603;46.944;7.412;2022-10-31T13:45:23;17.80;99.90
16974;DHT22;8603;46.944;7.412;2022-10-31T13:50:42;17.80;99.90
16974;DHT22;8603;46.944;7.412;2022-10-31T13:53:20;17.80;99.90
16974;DHT22;8603;46.944;7.412;2022-10-31T13:56:21;17.90;99.90
16974;DHT22;8603;46.944;7.412;2022-10-31T13:58:54;17.90;99.90
16974;DHT22;8603;46.944;7.412;2022-10-31T14:01:22;18.00;99.90
16974;DHT22;8603;46.944;7.412;2022-10-31T14:06:57;18.20;99.90
16974;DHT22;8603;46.944;7.412;2022-10-31T14:11:55;18.30;99.90
16974;DHT22;8603;46.944;7.412;2022-10-31T14:14:26;18.30;99.90
16974;DHT22;8603;46.944;7.412;2022-10-31T14:16:56;18.30;99.90
16974;DHT22;8603;46.944;7.412;2022-10-31T14:19:22;18.20;99.90
16974;DHT22;8603;46.944;7.412;2022-10-31T14:21:48;18.30;99.90
16974;DHT22;8603;46.944;7.412;2022-10-31T14:24:31;18.30;99.90
16974;DHT22;8603;46.944;7.412;2022-10-31T14:29:46;18.20;99.90
16974;DHT22;8603;46.944;7.412;2022-10-31T14:37:32;18.00;99.90
16974;DHT22;8603;46.944;7.412;2022-10-31T14:51:10;17.70;99.90
16974;DHT22;8603;46.944;7.412;2022-10-31T14:53:50;17.60;99.90
16974;DHT22;8603;46.944;7.412;2022-10-31T14:56:32;17.50;99.90
16974;DHT22;8603;46.944;7.412;2022-10-31T14:59:12;17.50;99.90
16974;DHT22;8603;46.944;7.412;2022-10-31T15:01:39;17.60;99.90
16974;DHT22;8603;46.944;7.412;2022-10-31T15:04:16;17.50;99.90
16974;DHT22;8603;46.944;7.412;2022-10-31T15:06:49;17.40;99.90
16974;DHT22;8603;46.944;7.412;2022-10-31T15:09:31;17.20;99.90
16974;DHT22;8603;46.944;7.412;2022-10-31T15:14:47;17.10;99.90
16974;DHT22;8603;46.944;7.412;2022-10-31T15:17:15;17.00;99.90
16974;DHT22;8603;46.944;7.412;2022-10-31T15:19:42;17.00;99.90
16974;DHT22;8603;46.944;7.412;2022-10-31T15:22:18;17.00;99.90
16974;DHT22;8603;46.944;7.412;2022-10-31T15:24:45;17.00;99.90
16974;DHT22;8603;46.944;7.412;2022-10-31T15:27:16;16.90;99.90
16974;DHT22;8603;46.944;7.412;2022-10-31T15:30:23;16.90;99.90
16974;DHT22;8603;46.944;7.412;2022-10-31T15:32:49;16.80;99.90
16974;DHT22;8603;46.944;7.412;2022-10-31T15:35:25;16.70;99.90
16974;DHT22;8603;46.944;7.412;2022-10-31T15:37:52;16.60;99.90
16974;DHT22;8603;46.944;7.412;2022-10-31T15:40:20;16.50;99.90
16974;DHT22;8603;46.944;7.412;2022-10-31T15:43:02;16.40;99.90
16974;DHT22;8603;46.944;7.412;2022-10-31T15:45:28;16.30;99.90
16974;DHT22;8603;46.944;7.412;2022-10-31T16:11:24;15.60;99.90
16974;DHT22;8603;46.944;7.412;2022-10-31T16:13:53;15.50;99.90
16974;DHT22;8603;46.944;7.412;2022-10-31T16:16:27;15.40;99.90
16974;DHT22;8603;46.944;7.412;2022-10-31T16:19:23;15.30;99.90
16974;DHT22;8603;46.944;7.412;2022-10-31T16:27:29;14.90;99.90
16974;DHT22;8603;46.944;7.412;2022-10-31T16:29:56;14.90;99.90
16974;DHT22;8603;46.944;7.412;2022-10-31T16:32:50;14.80;99.90
16974;DHT22;8603;46.944;7.412;2022-10-31T16:35:31;14.70;99.90
16974;DHT22;8603;46.944;7.412;2022-10-31T16:37:57;14.70;99.90
16974;DHT22;8603;46.944;7.412;2022-10-31T16:40:23;14.60;99.90
16974;DHT22;8603;46.944;7.412;2022-10-31T16:42:50;14.60;99.90
16974;DHT22;8603;46.944;7.412;2022-10-31T16:45:24;14.50;99.90
16974;DHT22;8603;46.944;7.412;2022-10-31T16:47:50;14.50;99.90
16974;DHT22;8603;46.944;7.412;2022-10-31T16:50:24;14.50;99.90
16974;DHT22;8603;46.944;7.412;2022-10-31T16:52:53;14.50;99.90
16974;DHT22;8603;46.944;7.412;2022-10-31T16:55:19;14.40;99.90
16974;DHT22;8603;46.944;7.412;2022-10-31T16:57:50;14.30;99.90
16974;DHT22;8603;46.944;7.412;2022-10-31T17:00:19;14.20;99.90
16974;DHT22;8603;46.944;7.412;2022-10-31T17:02:47;14.20;99.90
16974;DHT22;8603;46.944;7.412;2022-10-31T17:05:22;14.10;99.90
16974;DHT22;8603;46.944;7.412;2022-10-31T17:08:17;14.00;99.90
16974;DHT22;8603;46.944;7.412;2022-10-31T17:10:46;13.80;99.90
16974;DHT22;8603;46.944;7.412;2022-10-31T17:13:26;13.80;99.90
16974;DHT22;8603;46.944;7.412;2022-10-31T17:16:05;13.70;99.90
16974;DHT22;8603;46.944;7.412;2022-10-31T17:18:30;13.60;99.90
16974;DHT22;8603;46.944;7.412;2022-10-31T17:21:01;13.70;99.90
16974;DHT22;8603;46.944;7.412;2022-10-31T17:23:28;13.60;99.90
16974;DHT22;8603;46.944;7.412;2022-10-31T17:25:55;13.40;99.90
16974;DHT22;8603;46.944;7.412;2022-10-31T17:28:20;13.30;99.90
16974;DHT22;8603;46.944;7.412;2022-10-31T17:30:54;13.40;99.90
16974;DHT22;8603;46.944;7.412;2022-10-31T17:33:22;13.40;99.90
16974;DHT22;8603;46.944;7.412;2022-10-31T17:35:48;13.30;99.90
16974;DHT22;8603;46.944;7.412;2022-10-31T17:38:14;13.30;99.90
16974;DHT22;8603;46.944;7.412;2022-10-31T17:40:40;13.20;99.90
16974;DHT22;8603;46.944;7.412;2022-10-31T17:43:10;13.20;99.90
16974;DHT22;8603;46.944;7.412;2022-10-31T17:45:38;13.10;99.90
16974;DHT22;8603;46.944;7.412;2022-10-31T17:48:05;13.10;99.90
16974;DHT22;8603;46.944;7.412;2022-10-31T17:50:30;13.00;99.90
16974;DHT22;8603;46.944;7.412;2022-10-31T17:52:57;13.00;99.90
16974;DHT22;8603;46.944;7.412;2022-10-31T17:55:23;12.90;99.90
16974;DHT22;8603;46.944;7.412;2022-10-31T17:57:49;12.90;99.90
16974;DHT22;8603;46.944;7.412;2022-10-31T18:00:17;12.70;99.90
16974;DHT22;8603;46.944;7.412;2022-10-31T18:02:43;12.70;99.90
16974;DHT22;8603;46.944;7.412;2022-10-31T18:05:10;12.60;99.90
16974;DHT22;8603;46.944;7.412;2022-10-31T18:07:35;12.60;99.90
16974;DHT22;8603;46.944;7.412;2022-10-31T18:10:01;12.50;99.90
16974;DHT22;8603;46.944;7.412;2022-10-31T18:12:27;12.40;99.90
16974;DHT22;8603;46.944;7.412;2022-10-31T18:14:53;12.30;99.90
16974;DHT22;8603;46.944;7.412;2022-10-31T18:17:19;12.20;99.90
16974;DHT22;8603;46.944;7.412;2022-10-31T18:19:45;12.20;99.90
16974;DHT22;8603;46.944;7.412;2022-10-31T18:22:11;12.10;99.90
16974;DHT22;8603;46.944;7.412;2022-10-31T18:24:37;12.00;99.90
16974;DHT22;8603;46.944;7.412;2022-10-31T18:27:04;12.00;99.90
16974;DHT22;8603;46.944;7.412;2022-10-31T18:29:32;11.90;99.90
16974;DHT22;8603;46.944;7.412;2022-10-31T18:31:58;11.80;99.90
16974;DHT22;8603;46.944;7.412;2022-10-31T18:34:24;11.80;99.90
16974;DHT22;8603;46.944;7.412;2022-10-31T18:36:49;11.80;99.90
16974;DHT22;8603;46.944;7.412;2022-10-31T18:39:15;11.70;99.90
16974;DHT22;8603;46.944;7.412;2022-10-31T18:41:41;11.70;99.90
16974;DHT22;8603;46.944;7.412;2022-10-31T18:44:07;11.60;99.90
16974;DHT22;8603;46.944;7.412;2022-10-31T18:46:34;11.60;99.90
16974;DHT22;8603;46.944;7.412;2022-10-31T18:49:00;11.50;99.90
16974;DHT22;8603;46.944;7.412;2022-10-31T18:51:26;11.50;99.90
16974;DHT22;8603;46.944;7.412;2022-10-31T18:53:54;11.50;99.90
16974;DHT22;8603;46.944;7.412;2022-10-31T18:56:21;11.50;99.90
16974;DHT22;8603;46.944;7.412;2022-10-31T18:58:46;11.50;99.90
16974;DHT22;8603;46.944;7.412;2022-10-31T19:01:13;11.50;99.90
16974;DHT22;8603;46.944;7.412;2022-10-31T19:03:40;11.50;99.90
16974;DHT22;8603;46.944;7.412;2022-10-31T19:06:06;11.40;99.90
16974;DHT22;8603;46.944;7.412;2022-10-31T19:08:34;11.40;99.90
16974;DHT22;8603;46.944;7.412;2022-10-31T19:11:12;11.30;99.90
16974;DHT22;8603;46.944;7.412;2022-10-31T19:13:39;11.20;99.90
16974;DHT22;8603;46.944;7.412;2022-10-31T19:16:13;11.20;99.90
16974;DHT22;8603;46.944;7.412;2022-10-31T19:18:40;11.10;99.90
16974;DHT22;8603;46.944;7.412;2022-10-31T19:21:07;11.10;99.90
16974;DHT22;8603;46.944;7.412;2022-10-31T19:23:33;11.10;99.90
16974;DHT22;8603;46.944;7.412;2022-10-31T19:25:59;11.00;99.90
16974;DHT22;8603;46.944;7.412;2022-10-31T19:28:28;11.00;99.90
16974;DHT22;8603;46.944;7.412;2022-10-31T19:30:57;11.10;99.90
16974;DHT22;8603;46.944;7.412;2022-10-31T19:33:23;11.00;99.90
16974;DHT22;8603;46.944;7.412;2022-10-31T19:36:13;11.00;99.90
16974;DHT22;8603;46.944;7.412;2022-10-31T19:38:41;11.00;99.90
16974;DHT22;8603;46.944;7.412;2022-10-31T19:41:10;10.90;99.90
16974;DHT22;8603;46.944;7.412;2022-10-31T19:43:36;10.90;99.90
16974;DHT22;8603;46.944;7.412;2022-10-31T19:46:03;10.90;99.90
16974;DHT22;8603;46.944;7.412;2022-10-31T19:48:29;10.80;99.90
16974;DHT22;8603;46.944;7.412;2022-10-31T19:51:10;10.80;99.90
16974;DHT22;8603;46.944;7.412;2022-10-31T19:53:37;10.80;99.90
16974;DHT22;8603;46.944;7.412;2022-10-31T19:56:03;10.70;99.90
16974;DHT22;8603;46.944;7.412;2022-10-31T19:58:31;10.60;99.90
16974;DHT22;8603;46.944;7.412;2022-10-31T20:00:56;10.50;99.90
16974;DHT22;8603;46.944;7.412;2022-10-31T20:03:22;10.50;99.90
16974;DHT22;8603;46.944;7.412;2022-10-31T20:05:51;10.40;99.90
16974;DHT22;8603;46.944;7.412;2022-10-31T20:08:18;10.30;99.90
16974;DHT22;8603;46.944;7.412;2022-10-31T20:10:59;10.30;99.90
16974;DHT22;8603;46.944;7.412;2022-10-31T20:13:27;10.20;99.90
16974;DHT22;8603;46.944;7.412;2022-10-31T20:15:57;10.20;99.90
16974;DHT22;8603;46.944;7.412;2022-10-31T20:18:23;10.10;99.90
16974;DHT22;8603;46.944;7.412;2022-10-31T20:20:50;10.10;99.90
16974;DHT22;8603;46.944;7.412;2022-10-31T20:23:16;10.10;99.90
16974;DHT22;8603;46.944;7.412;2022-10-31T20:25:49;10.10;99.90
16974;DHT22;8603;46.944;7.412;2022-10-31T20:28:15;10.10;99.90
16974;DHT22;8603;46.944;7.412;2022-10-31T20:30:43;10.00;99.90
16974;DHT22;8603;46.944;7.412;2022-10-31T20:33:10;10.10;99.90
16974;DHT22;8603;46.944;7.412;2022-10-31T20:35:36;10.10;99.90
16974;DHT22;8603;46.944;7.412;2022-10-31T20:38:03;10.10;99.90
16974;DHT22;8603;46.944;7.412;2022-10-31T20:40:30;10.10;99.90
16974;DHT22;8603;46.944;7.412;2022-10-31T20:42:55;10.10;99.90
16974;DHT22;8603;46.944;7.412;2022-10-31T20:45:21;10.10;99.90
16974;DHT22;8603;46.944;7.412;2022-10-31T20:47:47;10.00;99.90
16974;DHT22;8603;46.944;7.412;2022-10-31T20:50:12;10.00;99.90
16974;DHT22;8603;46.944;7.412;2022-10-31T20:52:38;9.90;99.90
16974;DHT22;8603;46.944;7.412;2022-10-31T20:55:05;9.90;99.90
16974;DHT22;8603;46.944;7.412;2022-10-31T20:57:31;9.90;99.90